createdAt,value
2022-09-28T00:04:24.591Z,94196.25
2022-09-28T00:09:26.750Z,94194.19
2022-09-28T00:14:28.753Z,94199.81
2022-09-28T00:19:31.008Z,94192.78
2022-09-28T00:24:32.918Z,94188.13
2022-09-28T00:29:36.849Z,94201.81
2022-09-28T00:34:46.062Z,94180.19
2022-09-28T00:39:49.457Z,94185.13
2022-09-28T00:44:56.190Z,94194.50
2022-09-28T00:50:19.828Z,94191.28
2022-09-28T01:02:32.424Z,94157.63
2022-09-28T01:07:36.413Z,94196.38
2022-09-28T01:12:38.711Z,94191.00
2022-09-28T01:18:21.347Z,94192.50
2022-09-28T01:24:01.700Z,94181.47
2022-09-28T01:29:24.559Z,94185.28
2022-09-28T01:34:32.311Z,94172.63
2022-09-28T01:39:38.177Z,94164.91
2022-09-28T01:44:43.341Z,94163.00
2022-09-28T01:49:48.702Z,94141.69
2022-09-28T01:55:11.830Z,94149.50
2022-09-28T02:00:15.537Z,94134.63
2022-09-28T02:05:24.404Z,94129.13
2022-09-28T02:10:34.448Z,94116.31
2022-09-28T02:16:14.169Z,94120.34
2022-09-28T02:21:43.181Z,94122.84
2022-09-28T02:33:57.482Z,94068.94
2022-09-28T02:39:02.568Z,94103.09
2022-09-28T02:44:26.791Z,94099.50
2022-09-28T02:50:00.495Z,94085.22
2022-09-28T02:55:08.675Z,94102.78
2022-09-28T03:00:20.131Z,94093.50
2022-09-28T03:05:30.690Z,94070.69
2022-09-28T03:10:41.102Z,94077.94
2022-09-28T03:15:48.554Z,94053.47
2022-09-28T03:20:52.604Z,94085.94
2022-09-28T03:25:55.123Z,94082.75
2022-09-28T03:30:57.463Z,94086.47
2022-09-28T03:35:59.452Z,94061.13
2022-09-28T03:41:01.666Z,94076.06
2022-09-28T03:46:31.244Z,94076.94
2022-09-28T03:51:38.623Z,94073.06
2022-09-28T03:56:41.097Z,94080.44
2022-09-28T04:02:15.298Z,94081.72
2022-09-28T04:07:18.286Z,94090.09
2022-09-28T04:12:20.432Z,94061.84
2022-09-28T04:17:23.112Z,94087.22
2022-09-28T04:22:25.305Z,94085.78
2022-09-28T04:27:45.850Z,94096.50
2022-09-28T04:32:48.450Z,94057.41
2022-09-28T04:37:51.604Z,94099.16
2022-09-28T04:42:55.544Z,94103.31
2022-09-28T04:47:57.712Z,94068.00
2022-09-28T04:53:23.697Z,94096.84
2022-09-28T04:58:26.470Z,94087.50
2022-09-28T05:03:29.184Z,94090.59
2022-09-28T05:08:48.759Z,94083.34
2022-09-28T05:13:51.536Z,94081.09
2022-09-28T05:18:57.975Z,94086.47
2022-09-28T05:24:00.093Z,94076.72
2022-09-28T05:29:02.400Z,94081.03
2022-09-28T05:34:23.002Z,94059.41
2022-09-28T05:39:25.014Z,94085.59
2022-09-28T05:44:26.920Z,94084.50
2022-09-28T05:49:31.876Z,94070.81
2022-09-28T05:54:35.689Z,94080.63
2022-09-28T05:59:37.795Z,94059.13
2022-09-28T06:04:40.944Z,94071.25
2022-09-28T06:09:43.103Z,94065.47
2022-09-28T06:14:45.102Z,94035.84
2022-09-28T06:19:47.564Z,94074.63
2022-09-28T06:25:12.813Z,94070.81
2022-09-28T06:30:14.822Z,94058.34
2022-09-28T06:35:17.036Z,94068.16
2022-09-28T06:40:19.795Z,94020.59
2022-09-28T06:45:25.653Z,94050.44
2022-09-28T06:50:43.778Z,94052.09
2022-09-28T06:56:14.739Z,94062.88
2022-09-28T07:01:16.883Z,94054.91
2022-09-28T07:06:31.670Z,94059.56
2022-09-28T07:11:59.768Z,94071.16
2022-09-28T07:17:14.646Z,94069.66
2022-09-28T07:22:20.234Z,94064.25
2022-09-28T07:27:29.059Z,94075.03
2022-09-28T07:32:49.282Z,94073.38
2022-09-28T07:38:06.414Z,94068.72
2022-09-28T07:43:08.522Z,94059.72
2022-09-28T07:53:33.395Z,94026.88
2022-09-28T07:58:48.428Z,94061.63
2022-09-28T08:04:08.719Z,94061.13
2022-09-28T08:16:22.938Z,94063.00
2022-09-28T08:21:47.889Z,94058.28
2022-09-28T08:26:49.761Z,94049.59
2022-09-28T08:31:53.008Z,94060.78
2022-09-28T08:37:18.785Z,94055.09
2022-09-28T08:42:42.910Z,94060.34
2022-09-28T08:48:28.919Z,94061.66
2022-09-28T08:54:06.969Z,94029.41
2022-09-28T08:59:48.820Z,94058.78
2022-09-28T09:12:33.380Z,94053.81
2022-09-28T09:17:41.074Z,94051.94
2022-09-28T09:23:17.409Z,94036.53
2022-09-28T09:28:26.890Z,94042.72
2022-09-28T09:34:18.145Z,94031.88
2022-09-28T09:39:48.447Z,94046.59
2022-09-28T09:45:30.234Z,94022.22
2022-09-28T09:50:55.108Z,94058.16
2022-09-28T09:56:02.743Z,94048.03
2022-09-28T10:01:21.764Z,94038.75
2022-09-28T10:06:56.852Z,94037.09
2022-09-28T10:11:59.009Z,94028.88
2022-09-28T10:17:02.524Z,94024.28
2022-09-28T10:22:25.589Z,94034.75
2022-09-28T10:27:34.920Z,94029.31
2022-09-28T10:39:56.576Z,93984.94
2022-09-28T10:45:05.445Z,94016.53
2022-09-28T10:50:36.315Z,94002.00
2022-09-28T10:56:06.317Z,93995.50
2022-09-28T11:01:13.955Z,93982.13
2022-09-28T11:06:16.397Z,93969.56
2022-09-28T11:19:15.083Z,93955.50
2022-09-28T11:24:22.449Z,93959.25
2022-09-28T11:29:41.964Z,93951.22
2022-09-28T11:35:21.290Z,93949.75
2022-09-28T11:40:42.320Z,93935.78
2022-09-28T11:46:09.519Z,93932.00
2022-09-28T11:51:27.604Z,93913.78
2022-09-28T11:56:36.134Z,93922.06
2022-09-28T12:01:46.553Z,93896.50
2022-09-28T12:07:15.254Z,93865.72
2022-09-28T12:12:44.154Z,93892.81
2022-09-28T12:17:51.356Z,93887.47
2022-09-28T12:23:04.306Z,93891.69
2022-09-28T12:28:13.296Z,93889.16
2022-09-28T12:33:18.401Z,93883.66
2022-09-28T12:38:26.385Z,93869.19
2022-09-28T12:43:54.734Z,93856.31
2022-09-28T12:50:33.367Z,93850.91
2022-09-28T13:00:22.430Z,93836.72
2022-09-28T13:05:33.403Z,93821.88
2022-09-28T13:10:58.758Z,93818.19
2022-09-28T13:16:18.114Z,93784.00
2022-09-28T13:21:29.451Z,93803.00
2022-09-28T13:26:41.379Z,93781.25
2022-09-28T13:31:58.495Z,93791.63
2022-09-28T13:37:20.043Z,93794.28
2022-09-28T13:42:47.720Z,93780.75
2022-09-28T13:48:06.360Z,93771.13
2022-09-28T13:53:39.458Z,93754.47
2022-09-28T13:58:44.365Z,93773.53
2022-09-28T14:04:11.162Z,93761.03
2022-09-28T14:09:41.350Z,93745.56
2022-09-28T14:14:49.036Z,93689.88
2022-09-28T14:19:54.003Z,93689.88
2022-09-28T14:25:10.415Z,93722.28
2022-09-28T14:30:12.080Z,93721.91
2022-09-28T14:35:24.113Z,93700.94
2022-09-28T14:40:49.779Z,93686.13
2022-09-28T14:46:12.025Z,93671.72
2022-09-28T14:51:27.079Z,93672.06
2022-09-28T15:03:59.531Z,93680.63
2022-09-28T15:09:01.467Z,93680.63
2022-09-28T15:14:07.598Z,93669.69
2022-09-28T15:19:27.434Z,93694.47
2022-09-28T15:24:34.323Z,93681.66
2022-09-28T15:29:36.206Z,93672.78
2022-09-28T15:34:54.736Z,93675.50
2022-09-28T15:39:58.271Z,93665.44
2022-09-28T15:45:19.233Z,93654.53
2022-09-28T15:50:30.217Z,93641.78
2022-09-28T15:55:34.434Z,93653.13
2022-09-28T16:00:36.432Z,93654.22
2022-09-28T16:05:38.713Z,93634.22
2022-09-28T16:10:56.848Z,93635.81
2022-09-28T16:16:00.117Z,93639.69
2022-09-28T16:21:26.949Z,93640.16
2022-09-28T16:26:35.141Z,93652.25
2022-09-28T16:31:38.051Z,93639.56
2022-09-28T16:36:45.667Z,93633.75
2022-09-28T16:41:56.183Z,93633.84
2022-09-28T16:47:00.855Z,93629.63
2022-09-28T16:52:02.871Z,93629.66
2022-09-28T16:57:06.652Z,93616.59
2022-09-28T17:02:45.159Z,93615.84
2022-09-28T17:07:43.688Z,93616.28
2022-09-28T17:12:46.167Z,93632.19
2022-09-28T17:17:48.699Z,93618.34
2022-09-28T17:22:51.037Z,93625.28
2022-09-28T17:27:56.645Z,93614.94
2022-09-28T17:33:01.628Z,93615.66
2022-09-28T17:38:03.725Z,93607.25
2022-09-28T17:43:06.906Z,93593.84
2022-09-28T17:48:17.899Z,93612.78
2022-09-28T17:53:20.012Z,93626.41
2022-09-28T17:58:23.067Z,93626.44
2022-09-28T18:03:25.895Z,93607.25
2022-09-28T18:08:27.857Z,93633.13
2022-09-28T18:13:29.772Z,93648.59
2022-09-28T18:18:33.485Z,93651.34
2022-09-28T18:23:37.166Z,93635.50
2022-09-28T18:36:05.258Z,93672.63
2022-09-28T18:41:15.996Z,93647.97
2022-09-28T18:46:18.840Z,93700.88
2022-09-28T18:51:21.370Z,93703.19
2022-09-28T18:56:23.293Z,93707.06
2022-09-28T19:01:29.998Z,93702.44
2022-09-28T19:06:34.444Z,93697.47
2022-09-28T19:11:36.543Z,93694.00
2022-09-28T19:16:38.380Z,93709.44
2022-09-28T19:21:41.381Z,93677.38
2022-09-28T19:26:43.823Z,93680.84
2022-09-28T19:32:01.486Z,93677.00
2022-09-28T19:37:04.044Z,93665.44
2022-09-28T19:42:06.350Z,93668.91
2022-09-28T19:47:10.209Z,93662.38
2022-09-28T19:52:16.917Z,93665.44
2022-09-28T19:57:19.737Z,93671.63
2022-09-28T20:02:22.048Z,93653.84
2022-09-28T20:07:24.049Z,93642.31
2022-09-28T20:12:26.642Z,93684.00
2022-09-28T20:17:29.065Z,93694.81
2022-09-28T20:29:43.190Z,93684.00
2022-09-28T20:34:45.150Z,93678.22
2022-09-28T20:39:47.097Z,93699.84
2022-09-28T20:44:49.167Z,93705.25
2022-09-28T20:49:51.053Z,93722.25
2022-09-28T20:54:53.156Z,93726.84
2022-09-28T20:59:55.108Z,93719.91
2022-09-28T21:04:57.001Z,93721.84
2022-09-28T21:09:58.889Z,93725.31
2022-09-28T21:15:05.510Z,93724.91
2022-09-28T21:20:08.604Z,93729.53
2022-09-28T21:25:10.470Z,93719.50
2022-09-28T21:30:12.554Z,93740.31
2022-09-28T21:35:14.436Z,93737.63
2022-09-28T21:40:16.396Z,93753.44
2022-09-28T21:45:18.737Z,93727.91
2022-09-28T21:50:24.787Z,93744.13
2022-09-28T21:55:26.915Z,93733.28
2022-09-28T22:01:43.416Z,93712.00
2022-09-28T22:06:45.299Z,93693.06
2022-09-28T22:11:49.229Z,93693.47
2022-09-28T22:16:51.054Z,93700.78
2022-09-28T22:21:53.118Z,93666.38
2022-09-28T22:26:55.226Z,93691.88
2022-09-28T22:32:02.484Z,93691.06
2022-09-28T22:37:04.599Z,93697.59
2022-09-28T22:42:06.923Z,93662.13
2022-09-28T22:47:35.398Z,93651.31
2022-09-28T22:52:38.077Z,93668.63
2022-09-28T22:57:41.311Z,93673.25
2022-09-28T23:02:43.262Z,93668.22
2022-09-28T23:07:45.171Z,93650.41
2022-09-28T23:12:47.004Z,93680.13
2022-09-28T23:17:55.324Z,93702.84
2022-09-28T23:30:21.816Z,93714.81
2022-09-28T23:35:23.720Z,93716.31
2022-09-28T23:40:25.698Z,93699.75
2022-09-28T23:45:34.868Z,93677.41
2022-09-28T23:50:36.726Z,93666.59
2022-09-28T23:55:38.682Z,93649.28
